Time;durP1;ratioP1;P1;durP2;ratioP2;P2;SDS_P1;SDS_P2;PMS_P1;PMS_P2;Temp;Humidity;BMP_temperature;BMP_pressure;BME280_temperature;BME280_humidity;BME280_pressure;Samples;Min_cycle;Max_cycle;Signal;HPM_P1;HPM_P2
2022/01/20 00:02:10;;;;;;;;;;;;;;;;;;7393463;19;2213;-44
2022/01/20 00:28:27;;;;;;;;;;;;;;;;;;7392035;19;2130;-44
2022/01/20 00:31:05;;;;;;;;;;;;;;;;;;7391928;19;2192;-50
2022/01/20 00:33:40;;;;;;;;;;;;;;;;;;7391949;19;1965;-51
2022/01/20 00:38:36;;;;;;;;;;;;;;;;;;7390408;19;2164;-51
2022/01/20 00:41:04;;;;;;;;;;;;;;;;;;7389763;19;1974;-50
2022/01/20 00:43:31;;;;;;;;;;;;;;;;;;7391160;19;2201;-49
2022/01/20 00:45:58;;;;;;;;;;;;;;;;;;7389606;19;2189;-47
2022/01/20 00:48:26;;;;;;;;;;;;;;;;;;7391350;19;2286;-53
2022/01/20 00:50:53;;;;;;;;;;;;;;;;;;7395346;19;2086;-51
2022/01/20 00:53:20;;;;;;;;;;;;;;;;;;7398838;19;2139;-51
2022/01/20 00:55:47;;;;;;;;;;;;;;;;;;7398814;19;2146;-51
2022/01/20 00:58:14;;;;;;;;;;;;;;;;;;7399659;19;2054;-50
2022/01/20 01:00:42;;;;;;;;;;;;;;;;;;7399507;19;1941;-51
2022/01/20 01:03:09;;;;;;;;;;;;;;;;;;7397637;19;2071;-51
2022/01/20 01:05:46;;;;;;;;;;;;;;;;;;7397748;19;2269;-43
2022/01/20 01:08:13;;;;;;;;;;;;;;;;;;7395359;19;2381;-42
2022/01/20 01:10:44;;;;;;;;;;;;;;;;;;7399481;19;2171;-43
2022/01/20 01:13:14;;;;;;;;;;;;;;;;;;7398930;19;1391;-44
2022/01/20 01:15:46;;;;;;;;;;;;;;;;;;7396860;19;2372;-47
2022/01/20 01:23:40;;;;;;;;;;;;;;;;;;7398153;19;1982;-44
2022/01/20 01:26:09;;;;;;;;;;;;;;;;;;7398128;19;2187;-43
2022/01/20 01:28:36;;;;;;;;;;;;;;;;;;7396576;19;2185;-46
2022/01/20 01:33:35;;;;;;;;;;;;;;;;;;7397891;19;1936;-42
2022/01/20 01:36:04;;;;;;;;;;;;;;;;;;7397902;19;2177;-42
2022/01/20 01:38:38;;;;;;;;;;;;;;;;;;7396465;19;2246;-43
2022/01/20 01:41:09;;;;;;;;;;;;;;;;;;7395926;19;2151;-42
2022/01/20 01:43:40;;;;;;;;;;;;;;;;;;7395897;19;2063;-43
2022/01/20 01:46:08;;;;;;;;;;;;;;;;;;7397379;19;2028;-45
2022/01/20 01:48:40;;;;;;;;;;;;;;;;;;7393130;19;2096;-44
2022/01/20 01:51:09;;;;;;;;;;;;;;;;;;7395340;19;2181;-45
2022/01/20 01:53:38;;;;;;;;;;;;;;;;;;7396131;19;2163;-42
2022/01/20 01:56:06;;;;;;;;;;;;;;;;;;7395153;19;2173;-43
2022/01/20 01:58:36;;;;;;;;;;;;;;;;;;7396011;19;2162;-42
2022/01/20 02:01:12;;;;;;;;;;;;;;;;;;7396831;19;2145;-47
2022/01/20 02:03:45;;;;;;;;;;;;;;;;;;7393807;19;2053;-48
2022/01/20 02:06:52;;;;;;;;;;;;;;;;;;7397247;19;2222;-43
2022/01/20 02:09:35;;;;;;;;;;;;;;;;;;7395097;19;2060;-45
2022/01/20 02:20:18;;;;;;;;;;;;;;;;;;7396716;19;2066;-44
2022/01/20 02:22:51;;;;;;;;;;;;;;;;;;7394829;19;2099;-42
2022/01/20 02:25:27;;;;;;;;;;;;;;;;;;7394974;19;2210;-45
2022/01/20 02:27:55;;;;;;;;;;;;;;;;;;7392571;19;1958;-45
2022/01/20 02:30:25;;;;;;;;;;;;;;;;;;7396543;19;2149;-42
2022/01/20 02:32:53;;;;;;;;;;;;;;;;;;7396029;19;2248;-46
2022/01/20 02:35:21;;;;;;;;;;;;;;;;;;7394260;19;2147;-42
2022/01/20 02:37:54;;;;;;;;;;;;;;;;;;7393997;19;2129;-45
2022/01/20 02:45:39;;;;;;;;;;;;;;;;;;7395659;19;2160;-44
2022/01/20 02:48:07;;;;;;;;;;;;;;;;;;7392375;19;2127;-42
2022/01/20 02:50:35;;;;;;;;;;;;;;;;;;7393536;19;2026;-43
2022/01/20 02:53:02;;;;;;;;;;;;;;;;;;7394662;19;2086;-42
2022/01/20 02:55:29;;;;;;;;;;;;;;;;;;7393886;19;2225;-44
2022/01/20 02:57:56;;;;;;;;;;;;;;;;;;7394909;19;2159;-45
2022/01/20 03:00:24;;;;;;;;;;;;;;;;;;7396063;19;2171;-44
2022/01/20 03:02:52;;;;;;;;;;;;;;;;;;7393373;19;2193;-46
2022/01/20 03:05:19;;;;;;;;;;;;;;;;;;7394774;19;2085;-49
2022/01/20 03:07:54;;;;;;;;;;;;;;;;;;7393319;19;2148;-43
2022/01/20 03:10:21;;;;;;;;;;;;;;;;;;7393381;19;2089;-47
2022/01/20 03:12:48;;;;;;;;;;;;;;;;;;7395068;19;2119;-45
2022/01/20 03:15:15;;;;;;;;;;;;;;;;;;7393060;19;2069;-52
2022/01/20 03:17:42;;;;;;;;;;;;;;;;;;7391564;19;2144;-45
2022/01/20 03:20:10;;;;;;;;;;;;;;;;;;7395061;19;2544;-44
2022/01/20 03:22:37;;;;;;;;;;;;;;;;;;7394119;19;2041;-45
2022/01/20 03:25:05;;;;;;;;;;;;;;;;;;7392147;19;2238;-43
2022/01/20 03:27:32;;;;;;;;;;;;;;;;;;7391872;19;2153;-46
2022/01/20 03:29:59;;;;;;;;;;;;;;;;;;7391721;19;2063;-43
2022/01/20 03:32:28;;;;;;;;;;;;;;;;;;7391869;19;2061;-45
2022/01/20 03:34:56;;;;;;;;;;;;;;;;;;7394225;19;2145;-45
2022/01/20 03:37:23;;;;;;;;;;;;;;;;;;7392100;19;2151;-42
2022/01/20 03:40:03;;;;;;;;;;;;;;;;;;7391760;19;2181;-44
2022/01/20 03:42:30;;;;;;;;;;;;;;;;;;7392436;19;2052;-42
2022/01/20 03:44:58;;;;;;;;;;;;;;;;;;7391970;19;2102;-49
2022/01/20 03:47:26;;;;;;;;;;;;;;;;;;7390602;19;2232;-42
2022/01/20 03:52:28;;;;;;;;;;;;;;;;;;7390881;19;2119;-48
2022/01/20 03:54:56;;;;;;;;;;;;;;;;;;7391591;19;2046;-44
2022/01/20 03:57:26;;;;;;;;;;;;;;;;;;7393035;19;2186;-43
2022/01/20 04:00:00;;;;;;;;;;;;;;;;;;7392983;19;2151;-42
2022/01/20 04:02:40;;;;;;;;;;;;;;;;;;7392750;19;2165;-44
2022/01/20 04:05:25;;;;;;;;;;;;;;;;;;7392912;19;2306;-43
2022/01/20 04:08:11;;;;;;;;;;;;;;;;;;7389866;19;2076;-42
2022/01/20 04:10:38;;;;;;;;;;;;;;;;;;7393846;19;2089;-42
2022/01/20 04:13:05;;;;;;;;;;;;;;;;;;7390989;19;2214;-46
2022/01/20 04:15:38;;;;;;;;;;;;;;;;;;7392317;19;2150;-42
2022/01/20 04:18:06;;;;;;;;;;;;;;;;;;7389692;19;2189;-42
2022/01/20 04:20:33;;;;;;;;;;;;;;;;;;7390671;19;2195;-45
2022/01/20 04:23:01;;;;;;;;;;;;;;;;;;7391136;19;2264;-42
2022/01/20 04:25:28;;;;;;;;;;;;;;;;;;7388975;19;2163;-44
2022/01/20 04:27:55;;;;;;;;;;;;;;;;;;7389776;19;2225;-45
2022/01/20 04:30:23;;;;;;;;;;;;;;;;;;7393275;19;2104;-42
2022/01/20 04:32:50;;;;;;;;;;;;;;;;;;7392523;19;2241;-42
2022/01/20 04:35:20;;;;;;;;;;;;;;;;;;7390993;19;2199;-42
2022/01/20 04:37:48;;;;;;;;;;;;;;;;;;7390174;19;2106;-46
2022/01/20 04:40:16;;;;;;;;;;;;;;;;;;7389263;19;1968;-42
2022/01/20 04:42:46;;;;;;;;;;;;;;;;;;7391879;19;2153;-46
2022/01/20 04:45:19;;;;;;;;;;;;;;;;;;7391830;19;2277;-48
2022/01/20 04:47:56;;;;;;;;;;;;;;;;;;7389231;19;2218;-44
2022/01/20 04:58:42;;;;;;;;;;;;;;;;;;7390721;19;2291;-44
2022/01/20 05:01:10;;;;;;;;;;;;;;;;;;7390604;19;2029;-42
2022/01/20 05:04:02;;;;;;;;;;;;;;;;;;7389491;19;2163;-42
2022/01/20 05:06:49;;;;;;;;;;;;;;;;;;7390809;19;2045;-43
2022/01/20 05:09:19;;;;;;;;;;;;;;;;;;7386985;19;2095;-43
2022/01/20 05:11:56;;;;;;;;;;;;;;;;;;7393641;19;2104;-42
2022/01/20 05:14:25;;;;;;;;;;;;;;;;;;7389843;19;2078;-45
2022/01/20 05:16:53;;;;;;;;;;;;;;;;;;7390003;19;2246;-46
2022/01/20 05:19:24;;;;;;;;;;;;;;;;;;7389188;19;2136;-43
2022/01/20 05:21:52;;;;;;;;;;;;;;;;;;7389221;19;2256;-42
2022/01/20 05:24:26;;;;;;;;;;;;;;;;;;7390579;19;2085;-45
2022/01/20 05:26:55;;;;;;;;;;;;;;;;;;7391088;19;2165;-43
2022/01/20 05:29:23;;;;;;;;;;;;;;;;;;7387548;19;2289;-42
2022/01/20 05:31:51;;;;;;;;;;;;;;;;;;7389079;19;2176;-43
2022/01/20 05:34:19;;;;;;;;;;;;;;;;;;7390917;19;2046;-46
2022/01/20 05:36:48;;;;;;;;;;;;;;;;;;7388964;19;2155;-45
2022/01/20 05:39:16;;;;;;;;;;;;;;;;;;7396574;19;2216;-46
2022/01/20 05:41:44;;;;;;;;;;;;;;;;;;7398498;19;2171;-42
2022/01/20 05:44:23;;;;;;;;;;;;;;;;;;7394453;19;2154;-44
2022/01/20 05:46:52;;;;;;;;;;;;;;;;;;7395903;19;2186;-42
2022/01/20 05:49:38;;;;;;;;;;;;;;;;;;7395057;19;2085;-48
2022/01/20 05:52:07;;;;;;;;;;;;;;;;;;7396096;19;2233;-45
2022/01/20 05:54:35;;;;;;;;;;;;;;;;;;7396789;19;2159;-49
2022/01/20 05:57:02;;;;;;;;;;;;;;;;;;7395716;19;2135;-45
2022/01/20 05:59:33;;;;;;;;;;;;;;;;;;7395340;19;2150;-48
2022/01/20 06:02:09;;;;;;;;;;;;;;;;;;7397051;19;2178;-52
2022/01/20 06:04:37;;;;;;;;;;;;;;;;;;7395730;19;2061;-47
2022/01/20 06:07:04;;;;;;;;;;;;;;;;;;7394312;19;2295;-43
2022/01/20 06:09:32;;;;;;;;;;;;;;;;;;7392901;19;2236;-50
2022/01/20 06:11:59;;;;;;;;;;;;;;;;;;7398128;19;2101;-42
2022/01/20 06:14:28;;;;;;;;;;;;;;;;;;7395417;19;2210;-52
2022/01/20 06:16:55;;;;;;;;;;;;;;;;;;7394321;19;2181;-48
2022/01/20 06:19:24;;;;;;;;;;;;;;;;;;7395644;19;2082;-46
2022/01/20 06:21:52;;;;;;;;;;;;;;;;;;7393792;19;2178;-43
2022/01/20 06:24:19;;;;;;;;;;;;;;;;;;7395636;19;2098;-45
2022/01/20 06:26:46;;;;;;;;;;;;;;;;;;7393110;19;2220;-43
2022/01/20 06:29:13;;;;;;;;;;;;;;;;;;7392368;19;2148;-43
2022/01/20 06:31:41;;;;;;;;;;;;;;;;;;7395263;19;2144;-43
2022/01/20 06:34:09;;;;;;;;;;;;;;;;;;7393646;19;2129;-44
2022/01/20 06:36:38;;;;;;;;;;;;;;;;;;7396269;19;2280;-42
2022/01/20 06:39:05;;;;;;;;;;;;;;;;;;7394010;19;2180;-44
2022/01/20 06:41:38;;;;;;;;;;;;;;;;;;7393900;19;2104;-43
2022/01/20 06:44:07;;;;;;;;;;;;;;;;;;7395881;19;1980;-44
2022/01/20 06:46:34;;;;;;;;;;;;;;;;;;7393634;19;2450;-44
2022/01/20 06:49:10;;;;;;;;;;;;;;;;;;7391755;19;2190;-43
2022/01/20 06:51:51;;;;;;;;;;;;;;;;;;7394079;19;2176;-44
2022/01/20 06:54:18;;;;;;;;;;;;;;;;;;7395083;19;2177;-42
2022/01/20 06:56:45;;;;;;;;;;;;;;;;;;7394322;19;2088;-43
2022/01/20 06:59:15;;;;;;;;;;;;;;;;;;7394120;19;2154;-45
2022/01/20 07:01:43;;;;;;;;;;;;;;;;;;7393978;19;2209;-47
2022/01/20 07:04:18;;;;;;;;;;;;;;;;;;7393391;19;2134;-43
2022/01/20 07:06:45;;;;;;;;;;;;;;;;;;7394120;19;1465;-42
2022/01/20 07:09:34;;;;;;;;;;;;;;;;;;7393241;19;2209;-46
2022/01/20 07:12:10;;;;;;;;;;;;;;;;;;7397217;19;1938;-42
2022/01/20 07:14:38;;;;;;;;;;;;;;;;;;7393151;19;2194;-48
2022/01/20 07:17:06;;;;;;;;;;;;;;;;;;7393338;19;2097;-44
2022/01/20 07:19:35;;;;;;;;;;;;;;;;;;7393053;19;2215;-46
2022/01/20 07:22:05;;;;;;;;;;;;;;;;;;7392337;19;2231;-45
2022/01/20 07:24:32;;;;;;;;;;;;;;;;;;7396360;19;2186;-46
2022/01/20 07:27:09;;;;;;;;;;;;;;;;;;7391905;19;2010;-44
2022/01/20 07:29:37;;;;;;;;;;;;;;;;;;7391144;19;2144;-47
2022/01/20 07:32:06;;;;;;;;;;;;;;;;;;7392566;19;2002;-43
2022/01/20 07:34:34;;;;;;;;;;;;;;;;;;7392322;19;2095;-49
2022/01/20 07:37:03;;;;;;;;;;;;;;;;;;7396983;19;2210;-43
2022/01/20 07:39:30;;;;;;;;;;;;;;;;;;7392455;19;2211;-48
2022/01/20 07:41:58;;;;;;;;;;;;;;;;;;7392008;19;2100;-44
2022/01/20 07:44:44;;;;;;;;;;;;;;;;;;7394141;19;2149;-49
2022/01/20 07:47:39;;;;;;;;;;;;;;;;;;7391692;19;2109;-43
2022/01/20 07:50:06;;;;;;;;;;;;;;;;;;7390217;19;2265;-43
2022/01/20 07:52:34;;;;;;;;;;;;;;;;;;7391764;19;2195;-46
2022/01/20 07:55:01;;;;;;;;;;;;;;;;;;7391866;19;2089;-47
2022/01/20 07:57:28;;;;;;;;;;;;;;;;;;7391630;19;1983;-45
2022/01/20 07:59:55;;;;;;;;;;;;;;;;;;7390208;19;2096;-49
2022/01/20 08:02:32;;;;;;;;;;;;;;;;;;7393206;19;2077;-44
2022/01/20 08:04:59;;;;;;;;;;;;;;;;;;7391179;19;2173;-50
2022/01/20 08:07:26;;;;;;;;;;;;;;;;;;7390735;19;2134;-47
2022/01/20 08:09:57;;;;;;;;;;;;;;;;;;7389849;19;2116;-49
2022/01/20 08:12:26;;;;;;;;;;;;;;;;;;7396533;19;2083;-45
2022/01/20 08:15:01;;;;;;;;;;;;;;;;;;7392886;19;1967;-46
2022/01/20 08:17:40;;;;;;;;;;;;;;;;;;7388991;19;2076;-47
2022/01/20 08:20:07;;;;;;;;;;;;;;;;;;7390976;19;2189;-45
2022/01/20 08:22:35;;;;;;;;;;;;;;;;;;7390681;19;2184;-49
2022/01/20 08:25:07;;;;;;;;;;;;;;;;;;7392965;19;2221;-44
2022/01/20 08:27:37;;;;;;;;;;;;;;;;;;7391793;19;2141;-46
2022/01/20 08:30:05;;;;;;;;;;;;;;;;;;7388529;19;2337;-49
2022/01/20 08:32:33;;;;;;;;;;;;;;;;;;7390856;19;2135;-44
2022/01/20 08:35:15;;;;;;;;;;;;;;;;;;7390968;19;2000;-48
2022/01/20 08:37:53;;;;;;;;;;;;;;;;;;7390188;19;2140;-50
2022/01/20 08:40:24;;;;;;;;;;;;;;;;;;7395145;19;1974;-51
2022/01/20 08:42:54;;;;;;;;;;;;;;;;;;7389594;19;1997;-49
2022/01/20 08:45:23;;;;;;;;;;;;;;;;;;7386555;19;2097;-47
2022/01/20 08:47:54;;;;;;;;;;;;;;;;;;7388377;19;2161;-46
2022/01/20 08:50:24;;;;;;;;;;;;;;;;;;7388268;19;2016;-45
2022/01/20 08:52:52;;;;;;;;;;;;;;;;;;7389784;19;2136;-43
2022/01/20 08:55:19;;;;;;;;;;;;;;;;;;7390159;19;2191;-50
2022/01/20 08:57:53;;;;;;;;;;;;;;;;;;7391419;19;2158;-44
2022/01/20 09:00:21;;;;;;;;;;;;;;;;;;7389940;19;1645;-48
2022/01/20 09:02:56;;;;;;;;;;;;;;;;;;7391861;19;2155;-46
2022/01/20 09:05:24;;;;;;;;;;;;;;;;;;7389936;19;2118;-45
2022/01/20 09:08:04;;;;;;;;;;;;;;;;;;7389099;19;2065;-45
2022/01/20 09:10:37;;;;;;;;;;;;;;;;;;7387959;19;2430;-45
2022/01/20 09:15:58;;;;;;;;;;;;;;;;;;7399788;19;2159;-50
2022/01/20 09:18:42;;;;;;;;;;;;;;;;;;7396312;19;2138;-50
2022/01/20 09:21:11;;;;;;;;;;;;;;;;;;7396321;19;2163;-47
2022/01/20 09:23:41;;;;;;;;;;;;;;;;;;7394268;19;2121;-46
2022/01/20 09:26:08;;;;;;;;;;;;;;;;;;7401035;19;2140;-46
2022/01/20 09:28:40;;;;;;;;;;;;;;;;;;7395229;19;2180;-45
2022/01/20 09:31:10;;;;;;;;;;;;;;;;;;7391644;19;2189;-49
2022/01/20 09:33:39;;;;;;;;;;;;;;;;;;7397985;19;2083;-52
2022/01/20 09:36:09;;;;;;;;;;;;;;;;;;7395175;19;1996;-51
2022/01/20 09:38:37;;;;;;;;;;;;;;;;;;7392001;19;2214;-48
2022/01/20 09:41:11;;;;;;;;;;;;;;;;;;7391696;19;2186;-47
2022/01/20 09:43:39;;;;;;;;;;;;;;;;;;7391829;19;1932;-43
2022/01/20 09:46:06;;;;;;;;;;;;;;;;;;7395803;19;2206;-49
2022/01/20 09:48:39;;;;;;;;;;;;;;;;;;7395666;19;2177;-49
2022/01/20 09:51:13;;;;;;;;;;;;;;;;;;7395893;19;2274;-47
2022/01/20 09:53:50;;;;;;;;;;;;;;;;;;7399886;19;2176;-47
2022/01/20 09:56:47;;;;;;;;;;;;;;;;;;7395689;19;2165;-44
2022/01/20 09:59:18;;;;;;;;;;;;;;;;;;7397706;19;2179;-48
2022/01/20 10:01:47;;;;;;;;;;;;;;;;;;7392982;19;2127;-45
2022/01/20 10:04:25;;;;;;;;;;;;;;;;;;7391020;19;2141;-43
2022/01/20 10:06:53;;;;;;;;;;;;;;;;;;7393996;19;2106;-45
2022/01/20 10:09:28;;;;;;;;;;;;;;;;;;7393998;19;2173;-44
2022/01/20 10:12:08;;;;;;;;;;;;;;;;;;7398439;19;2108;-48
2022/01/20 10:14:57;;;;;;;;;;;;;;;;;;7394658;19;2183;-52
2022/01/20 10:17:43;;;;;;;;;;;;;;;;;;7393096;19;2134;-45
2022/01/20 10:20:12;;;;;;;;;;;;;;;;;;7391514;19;2207;-49
2022/01/20 10:23:03;;;;;;;;;;;;;;;;;;7391562;19;2278;-45
2022/01/20 10:26:07;;;;;;;;;;;;;;;;;;7392591;19;2170;-43
2022/01/20 10:28:56;;;;;;;;;;;;;;;;;;7394202;19;2115;-45
2022/01/20 10:31:37;;;;;;;;;;;;;;;;;;7392727;19;1981;-46
2022/01/20 10:34:07;;;;;;;;;;;;;;;;;;7390802;19;2169;-46
2022/01/20 10:36:46;;;;;;;;;;;;;;;;;;7393345;19;2241;-45
2022/01/20 10:39:38;;;;;;;;;;;;;;;;;;7390977;19;2203;-47
2022/01/20 10:42:06;;;;;;;;;;;;;;;;;;7390362;19;2158;-47
2022/01/20 10:44:43;;;;;;;;;;;;;;;;;;7391902;19;2104;-43
2022/01/20 10:47:28;;;;;;;;;;;;;;;;;;7394377;19;2123;-46
2022/01/20 10:50:08;;;;;;;;;;;;;;;;;;7390577;19;2129;-50
2022/01/20 10:52:37;;;;;;;;;;;;;;;;;;7393450;19;2160;-46
2022/01/20 10:55:17;;;;;;;;;;;;;;;;;;7391687;19;2154;-50
2022/01/20 10:57:44;;;;;;;;;;;;;;;;;;7393169;19;2132;-45
2022/01/20 11:00:12;;;;;;;;;;;;;;;;;;7393329;19;2162;-46
2022/01/20 11:02:47;;;;;;;;;;;;;;;;;;7393979;19;2102;-49
2022/01/20 11:05:16;;;;;;;;;;;;;;;;;;7394202;19;2214;-46
2022/01/20 11:07:45;;;;;;;;;;;;;;;;;;7391458;19;2074;-48
2022/01/20 11:10:14;;;;;;;;;;;;;;;;;;7389811;19;2109;-48
2022/01/20 11:12:59;;;;;;;;;;;;;;;;;;7394422;19;2167;-44
2022/01/20 11:15:34;;;;;;;;;;;;;;;;;;7393972;19;2085;-52
2022/01/20 11:18:04;;;;;;;;;;;;;;;;;;7391098;19;2108;-55
2022/01/20 11:20:39;;;;;;;;;;;;;;;;;;7392495;19;1995;-51
2022/01/20 11:23:07;;;;;;;;;;;;;;;;;;7392132;19;2106;-49
2022/01/20 11:25:41;;;;;;;;;;;;;;;;;;7392589;19;2185;-48
2022/01/20 11:28:22;;;;;;;;;;;;;;;;;;7391671;19;2188;-46
2022/01/20 11:31:10;;;;;;;;;;;;;;;;;;7392314;19;2104;-47
2022/01/20 11:33:55;;;;;;;;;;;;;;;;;;7391831;19;2105;-46
2022/01/20 11:36:24;;;;;;;;;;;;;;;;;;7391179;19;1989;-44
2022/01/20 11:39:12;;;;;;;;;;;;;;;;;;7392656;19;2126;-46
2022/01/20 11:41:47;;;;;;;;;;;;;;;;;;7391539;19;2181;-44
2022/01/20 11:44:18;;;;;;;;;;;;;;;;;;7393723;19;2154;-46
2022/01/20 11:46:47;;;;;;;;;;;;;;;;;;7391922;19;2202;-43
2022/01/20 11:49:15;;;;;;;;;;;;;;;;;;7390351;19;2160;-46
2022/01/20 11:51:45;;;;;;;;;;;;;;;;;;7391995;19;1958;-45
2022/01/20 11:54:52;;;;;;;;;;;;;;;;;;7390508;19;2345;-47
2022/01/20 11:57:19;;;;;;;;;;;;;;;;;;7390964;19;2159;-46
2022/01/20 11:59:51;;;;;;;;;;;;;;;;;;7391259;19;2023;-43
2022/01/20 12:02:24;;;;;;;;;;;;;;;;;;7388641;19;2081;-44
2022/01/20 12:04:55;;;;;;;;;;;;;;;;;;7386320;19;1937;-45
2022/01/20 12:07:42;;;;;;;;;;;;;;;;;;7388288;19;2211;-43
2022/01/20 12:10:12;;;;;;;;;;;;;;;;;;7386378;19;2160;-43
2022/01/20 12:12:40;;;;;;;;;;;;;;;;;;7387403;19;2059;-46
2022/01/20 12:15:09;;;;;;;;;;;;;;;;;;7387483;19;2191;-46
2022/01/20 12:17:38;;;;;;;;;;;;;;;;;;7391114;19;2163;-44
2022/01/20 12:20:06;;;;;;;;;;;;;;;;;;7392322;19;2223;-48
2022/01/20 12:22:38;;;;;;;;;;;;;;;;;;7393084;19;2094;-43
2022/01/20 12:25:05;;;;;;;;;;;;;;;;;;7391959;19;2124;-49
2022/01/20 12:27:33;;;;;;;;;;;;;;;;;;7392828;19;2215;-43
2022/01/20 12:30:00;;;;;;;;;;;;;;;;;;7391022;19;2279;-49
2022/01/20 12:32:27;;;;;;;;;;;;;;;;;;7392535;19;2267;-43
2022/01/20 12:35:01;;;;;;;;;;;;;;;;;;7391847;19;2144;-44
2022/01/20 12:37:35;;;;;;;;;;;;;;;;;;7392601;19;2114;-44
2022/01/20 12:40:08;;;;;;;;;;;;;;;;;;7392059;19;2102;-44
2022/01/20 12:42:36;;;;;;;;;;;;;;;;;;7392045;19;2147;-46
2022/01/20 12:45:55;;;;;;;;;;;;;;;;;;7392129;19;2134;-45
2022/01/20 12:47:50;;;;;;;;;;;;;;;;;;7397999;19;2102;-44
2022/01/20 12:50:18;;;;;;;;;;;;;;;;;;7397659;19;2226;-46
2022/01/20 12:52:49;;;;;;;;;;;;;;;;;;7400091;19;2102;-43
2022/01/20 12:55:17;;;;;;;;;;;;;;;;;;7399886;19;2149;-46
2022/01/20 12:57:45;;;;;;;;;;;;;;;;;;7399784;19;2211;-42
2022/01/20 13:00:12;;;;;;;;;;;;;;;;;;7399337;19;2062;-46
2022/01/20 13:02:40;;;;;;;;;;;;;;;;;;7399041;19;2155;-48
2022/01/20 13:05:07;;;;;;;;;;;;;;;;;;7396552;19;2050;-45
2022/01/20 13:07:37;;;;;;;;;;;;;;;;;;7397322;19;2027;-49
2022/01/20 13:10:32;;;;;;;;;;;;;;;;;;7396264;19;2284;-48
2022/01/20 13:13:05;;;;;;;;;;;;;;;;;;7398210;19;2078;-46
2022/01/20 13:15:33;;;;;;;;;;;;;;;;;;7398337;19;2232;-43
2022/01/20 13:18:01;;;;;;;;;;;;;;;;;;7395493;19;2120;-42
2022/01/20 13:20:28;;;;;;;;;;;;;;;;;;7398459;19;2161;-45
2022/01/20 13:23:09;;;;;;;;;;;;;;;;;;7398681;19;2217;-42
2022/01/20 13:25:39;;;;;;;;;;;;;;;;;;7398861;19;2185;-46
2022/01/20 13:28:08;;;;;;;;;;;;;;;;;;7398245;19;2105;-45
2022/01/20 13:30:39;;;;;;;;;;;;;;;;;;7396566;19;2018;-44
2022/01/20 13:33:17;;;;;;;;;;;;;;;;;;7397722;19;2148;-44
2022/01/20 13:35:47;;;;;;;;;;;;;;;;;;7398730;19;2107;-45
2022/01/20 13:38:14;;;;;;;;;;;;;;;;;;7397433;19;1843;-41
2022/01/20 13:40:45;;;;;;;;;;;;;;;;;;7397343;19;2065;-48
2022/01/20 13:46:01;;;;;;;;;;;;;;;;;;7397774;19;2114;-47
2022/01/20 13:48:29;;;;;;;;;;;;;;;;;;7397413;19;2127;-43
2022/01/20 13:50:57;;;;;;;;;;;;;;;;;;7395950;19;2221;-49
2022/01/20 13:53:27;;;;;;;;;;;;;;;;;;7398041;19;2211;-53
2022/01/20 13:55:56;;;;;;;;;;;;;;;;;;7396781;19;2329;-44
2022/01/20 13:58:25;;;;;;;;;;;;;;;;;;7399291;19;2172;-43
2022/01/20 14:00:53;;;;;;;;;;;;;;;;;;7397552;19;2150;-45
2022/01/20 14:03:21;;;;;;;;;;;;;;;;;;7397612;19;2078;-48
2022/01/20 14:05:49;;;;;;;;;;;;;;;;;;7397745;19;2096;-45
2022/01/20 14:08:18;;;;;;;;;;;;;;;;;;7397197;19;2003;-43
2022/01/20 14:10:45;;;;;;;;;;;;;;;;;;7396150;19;2036;-42
2022/01/20 14:13:12;;;;;;;;;;;;;;;;;;7394513;19;2178;-44
2022/01/20 14:15:39;;;;;;;;;;;;;;;;;;7395330;19;2184;-43
2022/01/20 14:18:07;;;;;;;;;;;;;;;;;;7394687;19;2086;-46
2022/01/20 14:20:35;;;;;;;;;;;;;;;;;;7396087;19;2161;-43
2022/01/20 14:23:03;;;;;;;;;;;;;;;;;;7396704;19;2231;-43
2022/01/20 14:25:32;;;;;;;;;;;;;;;;;;7394479;19;2122;-43
2022/01/20 14:27:59;;;;;;;;;;;;;;;;;;7394070;19;2035;-42
2022/01/20 14:30:28;;;;;;;;;;;;;;;;;;7395406;19;2162;-42
2022/01/20 14:32:56;;;;;;;;;;;;;;;;;;7395566;19;2180;-50
2022/01/20 14:35:25;;;;;;;;;;;;;;;;;;7396845;19;2117;-43
2022/01/20 14:38:13;;;;;;;;;;;;;;;;;;7396733;19;2130;-45
2022/01/20 14:40:40;;;;;;;;;;;;;;;;;;7395896;19;2560;-44
2022/01/20 14:43:07;;;;;;;;;;;;;;;;;;7395936;19;2018;-48
2022/01/20 14:45:34;;;;;;;;;;;;;;;;;;7396202;19;2069;-42
2022/01/20 14:48:02;;;;;;;;;;;;;;;;;;7395655;19;2149;-46
2022/01/20 14:50:29;;;;;;;;;;;;;;;;;;7394359;19;2142;-43
2022/01/20 14:52:57;;;;;;;;;;;;;;;;;;7395349;19;2083;-49
2022/01/20 14:55:24;;;;;;;;;;;;;;;;;;7395520;19;1991;-49
2022/01/20 14:57:51;;;;;;;;;;;;;;;;;;7395232;19;2262;-48
2022/01/20 15:00:19;;;;;;;;;;;;;;;;;;7395940;19;2141;-45
2022/01/20 15:02:47;;;;;;;;;;;;;;;;;;7395279;19;2148;-42
2022/01/20 15:05:16;;;;;;;;;;;;;;;;;;7396489;19;2156;-51
2022/01/20 15:07:43;;;;;;;;;;;;;;;;;;7395178;19;1876;-45
2022/01/20 15:10:12;;;;;;;;;;;;;;;;;;7394405;19;2050;-43
2022/01/20 15:12:40;;;;;;;;;;;;;;;;;;7395001;19;2128;-43
2022/01/20 15:15:07;;;;;;;;;;;;;;;;;;7395616;19;2193;-46
2022/01/20 15:17:39;;;;;;;;;;;;;;;;;;7393544;19;2150;-44
2022/01/20 15:20:08;;;;;;;;;;;;;;;;;;7394694;19;2116;-47
2022/01/20 15:22:35;;;;;;;;;;;;;;;;;;7394599;19;2150;-42
2022/01/20 15:25:03;;;;;;;;;;;;;;;;;;7393841;19;2154;-47
2022/01/20 15:27:30;;;;;;;;;;;;;;;;;;7394827;19;2263;-42
2022/01/20 15:29:57;;;;;;;;;;;;;;;;;;7392262;19;2103;-43
2022/01/20 15:32:40;;;;;;;;;;;;;;;;;;7394667;19;2088;-45
2022/01/20 15:35:08;;;;;;;;;;;;;;;;;;7393750;19;2122;-42
2022/01/20 15:37:36;;;;;;;;;;;;;;;;;;7394962;19;2148;-42
2022/01/20 15:40:07;;;;;;;;;;;;;;;;;;7393536;19;2208;-44
2022/01/20 15:42:35;;;;;;;;;;;;;;;;;;7393712;19;2237;-42
2022/01/20 15:45:04;;;;;;;;;;;;;;;;;;7393435;19;2169;-44
2022/01/20 15:47:31;;;;;;;;;;;;;;;;;;7394636;19;2525;-42
2022/01/20 15:49:58;;;;;;;;;;;;;;;;;;7393383;19;1865;-42
2022/01/20 15:52:26;;;;;;;;;;;;;;;;;;7394247;19;2180;-41
2022/01/20 15:54:53;;;;;;;;;;;;;;;;;;7393584;19;2139;-46
2022/01/20 15:57:21;;;;;;;;;;;;;;;;;;7393873;19;2138;-44
2022/01/20 15:59:49;;;;;;;;;;;;;;;;;;7393695;19;2045;-42
2022/01/20 16:02:16;;;;;;;;;;;;;;;;;;7393888;19;2085;-42
2022/01/20 16:04:43;;;;;;;;;;;;;;;;;;7392761;19;2192;-42
2022/01/20 16:07:10;;;;;;;;;;;;;;;;;;7393337;19;2285;-47
2022/01/20 16:09:38;;;;;;;;;;;;;;;;;;7392872;19;2124;-46
2022/01/20 16:12:07;;;;;;;;;;;;;;;;;;7394596;19;2179;-41
2022/01/20 16:14:38;;;;;;;;;;;;;;;;;;7392747;19;2001;-41
2022/01/20 16:17:05;;;;;;;;;;;;;;;;;;7391795;19;2163;-42
2022/01/20 16:19:32;;;;;;;;;;;;;;;;;;7392704;19;2190;-43
2022/01/20 16:22:04;;;;;;;;;;;;;;;;;;7390810;19;2234;-45
2022/01/20 16:24:32;;;;;;;;;;;;;;;;;;7392731;19;2102;-45
2022/01/20 16:27:01;;;;;;;;;;;;;;;;;;7392341;19;2110;-41
2022/01/20 16:29:28;;;;;;;;;;;;;;;;;;7390771;19;2208;-44
2022/01/20 16:31:55;;;;;;;;;;;;;;;;;;7390985;19;2198;-41
2022/01/20 16:34:25;;;;;;;;;;;;;;;;;;7392262;19;2156;-44
2022/01/20 16:36:52;;;;;;;;;;;;;;;;;;7392228;19;2091;-45
2022/01/20 16:39:20;;;;;;;;;;;;;;;;;;7393259;19;2186;-42
2022/01/20 16:41:49;;;;;;;;;;;;;;;;;;7392413;19;2201;-42
2022/01/20 16:44:18;;;;;;;;;;;;;;;;;;7392731;19;2253;-51
2022/01/20 16:46:45;;;;;;;;;;;;;;;;;;7391801;19;2064;-47
2022/01/20 16:49:13;;;;;;;;;;;;;;;;;;7392359;19;2201;-42
2022/01/20 16:51:41;;;;;;;;;;;;;;;;;;7390891;19;2125;-46
2022/01/20 16:54:08;;;;;;;;;;;;;;;;;;7392845;19;2042;-42
2022/01/20 16:56:36;;;;;;;;;;;;;;;;;;7391695;19;2092;-42
2022/01/20 16:59:04;;;;;;;;;;;;;;;;;;7392026;19;2124;-46
2022/01/20 17:01:32;;;;;;;;;;;;;;;;;;7391582;19;2198;-41
2022/01/20 17:04:00;;;;;;;;;;;;;;;;;;7389423;19;2264;-43
2022/01/20 17:06:27;;;;;;;;;;;;;;;;;;7389327;19;2062;-44
2022/01/20 17:08:54;;;;;;;;;;;;;;;;;;7391600;19;2274;-43
2022/01/20 17:11:21;;;;;;;;;;;;;;;;;;7392780;19;2220;-43
2022/01/20 17:13:48;;;;;;;;;;;;;;;;;;7391780;19;2408;-43
2022/01/20 17:16:17;;;;;;;;;;;;;;;;;;7391623;19;1934;-45
2022/01/20 17:18:46;;;;;;;;;;;;;;;;;;7391152;19;2221;-46
2022/01/20 17:21:13;;;;;;;;;;;;;;;;;;7390675;19;2164;-42
2022/01/20 17:23:42;;;;;;;;;;;;;;;;;;7388929;19;2117;-43
2022/01/20 17:26:11;;;;;;;;;;;;;;;;;;7390744;19;2005;-43
2022/01/20 17:28:38;;;;;;;;;;;;;;;;;;7390470;19;2238;-45
2022/01/20 17:31:05;;;;;;;;;;;;;;;;;;7390084;19;2251;-42
2022/01/20 17:33:32;;;;;;;;;;;;;;;;;;7396400;19;2188;-42
2022/01/20 17:35:59;;;;;;;;;;;;;;;;;;7398160;19;2061;-44
2022/01/20 17:38:27;;;;;;;;;;;;;;;;;;7398221;19;1965;-43
2022/01/20 17:40:54;;;;;;;;;;;;;;;;;;7398181;19;2115;-45
2022/01/20 17:43:21;;;;;;;;;;;;;;;;;;7398242;19;2175;-42
2022/01/20 17:45:49;;;;;;;;;;;;;;;;;;7398246;19;2288;-44
2022/01/20 17:48:16;;;;;;;;;;;;;;;;;;7397840;19;2232;-44
2022/01/20 17:50:43;;;;;;;;;;;;;;;;;;7395454;19;2207;-45
2022/01/20 17:53:12;;;;;;;;;;;;;;;;;;7395691;19;2120;-44
2022/01/20 17:55:39;;;;;;;;;;;;;;;;;;7395561;19;2225;-42
2022/01/20 17:58:08;;;;;;;;;;;;;;;;;;7397431;19;1659;-42
2022/01/20 18:00:35;;;;;;;;;;;;;;;;;;7396846;19;2127;-43
2022/01/20 18:03:05;;;;;;;;;;;;;;;;;;7397000;19;2095;-41
2022/01/20 18:05:32;;;;;;;;;;;;;;;;;;7397014;19;2156;-40
2022/01/20 18:08:00;;;;;;;;;;;;;;;;;;7397162;19;2170;-44
2022/01/20 18:10:27;;;;;;;;;;;;;;;;;;7397276;19;1941;-42
2022/01/20 18:12:59;;;;;;;;;;;;;;;;;;7396883;19;2066;-44
2022/01/20 18:15:26;;;;;;;;;;;;;;;;;;7396453;19;2239;-42
2022/01/20 18:17:53;;;;;;;;;;;;;;;;;;7394857;19;2182;-44
2022/01/20 18:20:20;;;;;;;;;;;;;;;;;;7396504;19;2095;-46
2022/01/20 18:22:48;;;;;;;;;;;;;;;;;;7396813;19;2092;-46
2022/01/20 18:25:16;;;;;;;;;;;;;;;;;;7396527;19;2368;-41
2022/01/20 18:27:44;;;;;;;;;;;;;;;;;;7395637;19;2120;-42
2022/01/20 18:30:13;;;;;;;;;;;;;;;;;;7396458;19;2199;-42
2022/01/20 18:32:42;;;;;;;;;;;;;;;;;;7393850;19;2019;-47